Broad Channel, NY

1:16 PM EST on December 26, 2014 (GMT -0500)
Howard Beach | Change Station
CLOSE
Current Station
Personal Weather Station
Location: Queens, NY
Elevation: 7 ft
Nearby Weather Stations

Elev 7 ft 40.66 °N, 73.84 °W | Updated 3 seconds ago

Clear
Clear
51.1 °F
Feels Like 51.1 °F
N
1.0
Wind Variable Wind from East

Today
High -- | Low -- °F
--% Chance of Precip.
Yesterday
High -- | Low -- °F
Precip. -- in
7:17 AM 4:34 PM
Waxing Crescent, 28% visible
Pressure 30.22 in
Visibility 10.0 miles
Clouds Few 25000 ft
Dew Point 34 °F
Humidity 52%
Rainfall 0.00 in
Snow Depth Not available.
UV 2 out of 12
Pollen .10 out of 12
Air Quality Not available.
Flu Activity Not available.
METAR KJFK 261751Z 28009KT 250V320 10SM FEW250 10/M02 A3022 RMK AO2 SLP231 T01001022 10100 20044 58015

More Conditions Fewer Conditions

Pressure 30.22 in
Visibility 10.0 miles
Clouds Few 25000 ft
Dew Point 34 °F
Humidity 52%
Rainfall 0.00 in
Snow Depth Not available.
UV 2 out of 12
Pollen .10 out of 12
Air Quality Not available.
Flu Activity Not available.
METAR KJFK 261751Z 28009KT 250V320 10SM FEW250 10/M02 A3022 RMK AO2 SLP231 T01001022 10100 20044 58015

More Conditions Fewer Conditions

10-Day Weather Forecast

Almanac

Astronomy

Dec. 26, 2014 Rise Set
Actual Time
Civil Twilight
Nautical Twilight
Astronomical Twilight
Moon
Length of Visible Light
Length of Day
Tomorrow will be .
, % of the Moon is Illuminated

Today's Extremes

State Highs State Lows

Community

WunderPhotos

Upload Photos

1,780,659 photos uploaded!

WunderBlogs® & News

Nearby

Air Quality

  Air Quality AQ Index Pollutant
Not available.

Snow Depth

Station Depth Elevation

Earthquake Activity

City Distance Mag. Time & Date
Minimum magnitude displayed is 2.5.

Coastal Water Temperatures

Place Temperature

Nearby Weather Stations